sensor_id;sensor_type;location;lat;lon;timestamp;temperature;humidity
11009;DHT22;5557;51.670;7.788;2023-04-24T00:02:04;11.20;14.90
11009;DHT22;5557;51.670;7.788;2023-04-24T00:04:33;11.10;16.40
11009;DHT22;5557;51.670;7.788;2023-04-24T00:07:00;11.00;19.00
11009;DHT22;5557;51.670;7.788;2023-04-24T00:09:27;10.80;21.00
11009;DHT22;5557;51.670;7.788;2023-04-24T00:11:55;10.80;22.80
11009;DHT22;5557;51.670;7.788;2023-04-24T00:14:22;10.80;22.20
11009;DHT22;5557;51.670;7.788;2023-04-24T00:16:49;10.90;21.20
11009;DHT22;5557;51.670;7.788;2023-04-24T00:19:17;10.90;22.00
11009;DHT22;5557;51.670;7.788;2023-04-24T00:21:44;10.90;22.80
11009;DHT22;5557;51.670;7.788;2023-04-24T00:24:11;10.90;23.50
11009;DHT22;5557;51.670;7.788;2023-04-24T00:26:38;10.90;24.50
11009;DHT22;5557;51.670;7.788;2023-04-24T00:29:05;10.90;24.30
11009;DHT22;5557;51.670;7.788;2023-04-24T00:31:32;10.90;26.80
11009;DHT22;5557;51.670;7.788;2023-04-24T00:34:02;10.80;26.90
11009;DHT22;5557;51.670;7.788;2023-04-24T00:36:30;10.80;27.90
11009;DHT22;5557;51.670;7.788;2023-04-24T00:38:57;10.80;28.60
11009;DHT22;5557;51.670;7.788;2023-04-24T00:41:25;10.80;29.10
11009;DHT22;5557;51.670;7.788;2023-04-24T00:43:52;10.70;29.30
11009;DHT22;5557;51.670;7.788;2023-04-24T00:46:20;10.70;28.00
11009;DHT22;5557;51.670;7.788;2023-04-24T00:48:48;10.70;27.80
11009;DHT22;5557;51.670;7.788;2023-04-24T00:51:14;10.70;27.10
11009;DHT22;5557;51.670;7.788;2023-04-24T00:53:42;10.70;25.80
11009;DHT22;5557;51.670;7.788;2023-04-24T00:56:09;10.70;26.50
11009;DHT22;5557;51.670;7.788;2023-04-24T00:58:36;10.70;27.90
11009;DHT22;5557;51.670;7.788;2023-04-24T01:01:03;10.60;28.40
11009;DHT22;5557;51.670;7.788;2023-04-24T01:03:34;10.60;29.50
11009;DHT22;5557;51.670;7.788;2023-04-24T01:06:05;10.60;25.90
11009;DHT22;5557;51.670;7.788;2023-04-24T01:08:32;10.60;25.40
11009;DHT22;5557;51.670;7.788;2023-04-24T01:11:03;10.60;25.70
11009;DHT22;5557;51.670;7.788;2023-04-24T01:13:32;10.50;24.80
11009;DHT22;5557;51.670;7.788;2023-04-24T01:16:00;10.50;25.90
11009;DHT22;5557;51.670;7.788;2023-04-24T01:18:27;10.40;28.00
11009;DHT22;5557;51.670;7.788;2023-04-24T01:20:58;10.30;29.50
11009;DHT22;5557;51.670;7.788;2023-04-24T01:23:26;10.30;29.00
11009;DHT22;5557;51.670;7.788;2023-04-24T01:25:53;10.20;29.50
11009;DHT22;5557;51.670;7.788;2023-04-24T01:28:21;10.20;30.10
11009;DHT22;5557;51.670;7.788;2023-04-24T01:30:48;10.20;28.80
11009;DHT22;5557;51.670;7.788;2023-04-24T01:33:16;10.20;29.10
11009;DHT22;5557;51.670;7.788;2023-04-24T01:35:43;10.10;30.50
11009;DHT22;5557;51.670;7.788;2023-04-24T01:38:10;10.10;32.30
11009;DHT22;5557;51.670;7.788;2023-04-24T01:40:37;10.00;33.40
11009;DHT22;5557;51.670;7.788;2023-04-24T01:43:05;9.90;37.30
11009;DHT22;5557;51.670;7.788;2023-04-24T01:45:32;9.90;35.20
11009;DHT22;5557;51.670;7.788;2023-04-24T01:48:00;9.90;33.50
11009;DHT22;5557;51.670;7.788;2023-04-24T01:50:27;9.90;32.60
11009;DHT22;5557;51.670;7.788;2023-04-24T01:52:54;9.80;32.70
11009;DHT22;5557;51.670;7.788;2023-04-24T01:55:22;9.80;28.50
11009;DHT22;5557;51.670;7.788;2023-04-24T01:57:49;9.90;27.70
11009;DHT22;5557;51.670;7.788;2023-04-24T02:00:16;9.90;26.10
11009;DHT22;5557;51.670;7.788;2023-04-24T02:02:44;10.00;21.00
11009;DHT22;5557;51.670;7.788;2023-04-24T02:05:14;10.10;20.60
11009;DHT22;5557;51.670;7.788;2023-04-24T02:07:41;10.10;18.80
11009;DHT22;5557;51.670;7.788;2023-04-24T02:10:09;10.20;17.10
11009;DHT22;5557;51.670;7.788;2023-04-24T02:12:45;10.30;14.00
11009;DHT22;5557;51.670;7.788;2023-04-24T02:15:15;10.30;13.80
11009;DHT22;5557;51.670;7.788;2023-04-24T02:17:44;10.40;14.20
11009;DHT22;5557;51.670;7.788;2023-04-24T02:20:11;10.40;14.20
11009;DHT22;5557;51.670;7.788;2023-04-24T02:22:38;10.40;14.30
11009;DHT22;5557;51.670;7.788;2023-04-24T02:25:05;10.40;13.80
11009;DHT22;5557;51.670;7.788;2023-04-24T02:27:32;10.40;13.80
11009;DHT22;5557;51.670;7.788;2023-04-24T02:30:02;10.30;13.70
11009;DHT22;5557;51.670;7.788;2023-04-24T02:32:30;10.30;14.20
11009;DHT22;5557;51.670;7.788;2023-04-24T02:35:00;10.20;15.20
11009;DHT22;5557;51.670;7.788;2023-04-24T02:37:28;10.20;16.00
11009;DHT22;5557;51.670;7.788;2023-04-24T02:39:54;10.20;16.10
11009;DHT22;5557;51.670;7.788;2023-04-24T02:42:28;10.20;17.30
11009;DHT22;5557;51.670;7.788;2023-04-24T02:44:57;10.30;18.00
11009;DHT22;5557;51.670;7.788;2023-04-24T02:47:25;10.30;19.60
11009;DHT22;5557;51.670;7.788;2023-04-24T02:49:52;10.30;18.50
11009;DHT22;5557;51.670;7.788;2023-04-24T02:52:19;10.20;20.10
11009;DHT22;5557;51.670;7.788;2023-04-24T02:54:49;10.20;19.70
11009;DHT22;5557;51.670;7.788;2023-04-24T02:57:18;10.20;20.10
11009;DHT22;5557;51.670;7.788;2023-04-24T02:59:45;10.20;20.20
11009;DHT22;5557;51.670;7.788;2023-04-24T03:02:12;10.20;21.60
11009;DHT22;5557;51.670;7.788;2023-04-24T03:04:41;10.20;21.50
11009;DHT22;5557;51.670;7.788;2023-04-24T03:07:10;10.20;21.60
11009;DHT22;5557;51.670;7.788;2023-04-24T03:09:39;10.20;21.70
11009;DHT22;5557;51.670;7.788;2023-04-24T03:12:09;10.20;22.50
11009;DHT22;5557;51.670;7.788;2023-04-24T03:14:36;10.10;22.80
11009;DHT22;5557;51.670;7.788;2023-04-24T03:17:05;10.10;24.00
11009;DHT22;5557;51.670;7.788;2023-04-24T03:19:35;10.00;24.90
11009;DHT22;5557;51.670;7.788;2023-04-24T03:22:03;9.90;23.70
11009;DHT22;5557;51.670;7.788;2023-04-24T03:24:32;9.90;21.80
11009;DHT22;5557;51.670;7.788;2023-04-24T03:26:59;9.80;22.70
11009;DHT22;5557;51.670;7.788;2023-04-24T03:29:28;9.70;25.30
11009;DHT22;5557;51.670;7.788;2023-04-24T03:31:58;9.60;27.40
11009;DHT22;5557;51.670;7.788;2023-04-24T03:34:25;9.50;28.90
11009;DHT22;5557;51.670;7.788;2023-04-24T03:36:53;9.40;30.90
11009;DHT22;5557;51.670;7.788;2023-04-24T03:39:22;9.40;30.70
11009;DHT22;5557;51.670;7.788;2023-04-24T03:41:51;9.30;32.40
11009;DHT22;5557;51.670;7.788;2023-04-24T03:44:21;9.30;35.20
11009;DHT22;5557;51.670;7.788;2023-04-24T03:46:51;9.20;37.70
11009;DHT22;5557;51.670;7.788;2023-04-24T03:49:21;9.20;37.80
11009;DHT22;5557;51.670;7.788;2023-04-24T03:51:48;9.20;41.10
11009;DHT22;5557;51.670;7.788;2023-04-24T03:54:15;9.20;40.50
11009;DHT22;5557;51.670;7.788;2023-04-24T03:56:42;9.30;39.90
11009;DHT22;5557;51.670;7.788;2023-04-24T03:59:09;9.30;41.30
11009;DHT22;5557;51.670;7.788;2023-04-24T04:01:36;9.30;41.00
11009;DHT22;5557;51.670;7.788;2023-04-24T04:04:04;9.40;41.50
11009;DHT22;5557;51.670;7.788;2023-04-24T04:06:31;9.40;41.30
11009;DHT22;5557;51.670;7.788;2023-04-24T04:08:59;9.40;41.40
11009;DHT22;5557;51.670;7.788;2023-04-24T04:11:26;9.30;43.50
11009;DHT22;5557;51.670;7.788;2023-04-24T04:13:53;9.30;45.00
11009;DHT22;5557;51.670;7.788;2023-04-24T04:16:20;9.30;45.30
11009;DHT22;5557;51.670;7.788;2023-04-24T04:18:47;9.30;45.90
11009;DHT22;5557;51.670;7.788;2023-04-24T04:21:14;9.30;46.50
11009;DHT22;5557;51.670;7.788;2023-04-24T04:23:41;9.30;47.00
11009;DHT22;5557;51.670;7.788;2023-04-24T04:26:08;9.30;46.80
11009;DHT22;5557;51.670;7.788;2023-04-24T04:28:35;9.30;47.50
11009;DHT22;5557;51.670;7.788;2023-04-24T04:31:02;9.40;46.70
11009;DHT22;5557;51.670;7.788;2023-04-24T04:33:29;9.40;47.20
11009;DHT22;5557;51.670;7.788;2023-04-24T04:35:57;9.40;45.60
11009;DHT22;5557;51.670;7.788;2023-04-24T04:38:25;9.50;45.60
11009;DHT22;5557;51.670;7.788;2023-04-24T04:40:53;9.50;45.50
11009;DHT22;5557;51.670;7.788;2023-04-24T04:43:20;9.50;44.70
11009;DHT22;5557;51.670;7.788;2023-04-24T04:45:47;9.50;44.20
11009;DHT22;5557;51.670;7.788;2023-04-24T04:48:14;9.50;45.60
11009;DHT22;5557;51.670;7.788;2023-04-24T04:50:44;9.60;44.40
11009;DHT22;5557;51.670;7.788;2023-04-24T04:53:11;9.60;44.20
11009;DHT22;5557;51.670;7.788;2023-04-24T04:55:38;9.60;43.70
11009;DHT22;5557;51.670;7.788;2023-04-24T04:58:05;9.60;42.80
11009;DHT22;5557;51.670;7.788;2023-04-24T05:00:32;9.60;40.10
11009;DHT22;5557;51.670;7.788;2023-04-24T05:03:02;9.70;39.20
11009;DHT22;5557;51.670;7.788;2023-04-24T05:05:46;9.70;38.40
11009;DHT22;5557;51.670;7.788;2023-04-24T05:08:13;9.70;38.60
11009;DHT22;5557;51.670;7.788;2023-04-24T05:10:53;9.70;39.00
11009;DHT22;5557;51.670;7.788;2023-04-24T05:13:20;9.70;35.60
11009;DHT22;5557;51.670;7.788;2023-04-24T05:16:05;9.80;36.00
11009;DHT22;5557;51.670;7.788;2023-04-24T05:18:32;9.70;35.90
11009;DHT22;5557;51.670;7.788;2023-04-24T05:20:59;9.70;34.80
11009;DHT22;5557;51.670;7.788;2023-04-24T05:23:26;9.80;33.90
11009;DHT22;5557;51.670;7.788;2023-04-24T05:25:53;9.80;34.10
11009;DHT22;5557;51.670;7.788;2023-04-24T05:28:20;9.80;34.10
11009;DHT22;5557;51.670;7.788;2023-04-24T05:30:47;9.80;33.10
11009;DHT22;5557;51.670;7.788;2023-04-24T05:33:15;9.80;33.20
11009;DHT22;5557;51.670;7.788;2023-04-24T05:35:42;9.80;33.60
11009;DHT22;5557;51.670;7.788;2023-04-24T05:38:12;9.90;33.80
11009;DHT22;5557;51.670;7.788;2023-04-24T05:40:40;9.80;31.30
11009;DHT22;5557;51.670;7.788;2023-04-24T05:43:07;9.90;31.40
11009;DHT22;5557;51.670;7.788;2023-04-24T05:45:34;9.80;32.30
11009;DHT22;5557;51.670;7.788;2023-04-24T05:48:03;9.90;29.70
11009;DHT22;5557;51.670;7.788;2023-04-24T05:50:30;9.90;31.00
11009;DHT22;5557;51.670;7.788;2023-04-24T05:52:57;9.90;31.20
11009;DHT22;5557;51.670;7.788;2023-04-24T05:55:30;9.90;30.40
11009;DHT22;5557;51.670;7.788;2023-04-24T05:57:59;10.00;28.70
11009;DHT22;5557;51.670;7.788;2023-04-24T06:00:26;10.40;26.20
11009;DHT22;5557;51.670;7.788;2023-04-24T06:02:53;11.00;14.70
11009;DHT22;5557;51.670;7.788;2023-04-24T06:05:21;11.10;13.20
11009;DHT22;5557;51.670;7.788;2023-04-24T06:07:48;11.00;12.70
11009;DHT22;5557;51.670;7.788;2023-04-24T06:10:15;10.90;14.10
11009;DHT22;5557;51.670;7.788;2023-04-24T06:12:43;10.70;15.20
11009;DHT22;5557;51.670;7.788;2023-04-24T06:15:10;10.40;17.30
11009;DHT22;5557;51.670;7.788;2023-04-24T06:17:37;10.30;17.60
11009;DHT22;5557;51.670;7.788;2023-04-24T06:20:06;10.30;17.10
11009;DHT22;5557;51.670;7.788;2023-04-24T06:22:34;10.20;19.20
11009;DHT22;5557;51.670;7.788;2023-04-24T06:25:02;10.20;21.90
11009;DHT22;5557;51.670;7.788;2023-04-24T06:27:29;10.30;22.30
11009;DHT22;5557;51.670;7.788;2023-04-24T06:29:56;10.30;18.60
11009;DHT22;5557;51.670;7.788;2023-04-24T06:32:24;10.30;18.80
11009;DHT22;5557;51.670;7.788;2023-04-24T06:34:52;10.30;19.70
11009;DHT22;5557;51.670;7.788;2023-04-24T06:37:22;10.30;21.10
11009;DHT22;5557;51.670;7.788;2023-04-24T06:39:49;10.20;20.60
11009;DHT22;5557;51.670;7.788;2023-04-24T06:42:16;10.10;24.00
11009;DHT22;5557;51.670;7.788;2023-04-24T06:44:43;10.10;26.40
11009;DHT22;5557;51.670;7.788;2023-04-24T06:47:11;10.00;25.80
11009;DHT22;5557;51.670;7.788;2023-04-24T06:49:40;10.00;28.70
11009;DHT22;5557;51.670;7.788;2023-04-24T06:52:08;10.00;28.50
11009;DHT22;5557;51.670;7.788;2023-04-24T06:54:35;10.00;29.90
11009;DHT22;5557;51.670;7.788;2023-04-24T06:57:02;10.00;29.10
11009;DHT22;5557;51.670;7.788;2023-04-24T06:59:30;10.00;30.10
11009;DHT22;5557;51.670;7.788;2023-04-24T07:01:57;10.00;28.50
11009;DHT22;5557;51.670;7.788;2023-04-24T07:04:24;10.10;28.20
11009;DHT22;5557;51.670;7.788;2023-04-24T07:06:52;10.30;26.60
11009;DHT22;5557;51.670;7.788;2023-04-24T07:09:23;10.50;22.20
11009;DHT22;5557;51.670;7.788;2023-04-24T07:11:57;10.50;20.90
11009;DHT22;5557;51.670;7.788;2023-04-24T07:14:27;10.30;20.00
11009;DHT22;5557;51.670;7.788;2023-04-24T07:17:18;10.10;22.80
11009;DHT22;5557;51.670;7.788;2023-04-24T07:19:49;10.00;24.70
11009;DHT22;5557;51.670;7.788;2023-04-24T07:22:17;10.00;27.20
11009;DHT22;5557;51.670;7.788;2023-04-24T07:24:44;10.00;25.50
11009;DHT22;5557;51.670;7.788;2023-04-24T07:27:11;10.00;23.80
11009;DHT22;5557;51.670;7.788;2023-04-24T07:29:38;10.10;23.00
11009;DHT22;5557;51.670;7.788;2023-04-24T07:32:15;10.10;20.70
11009;DHT22;5557;51.670;7.788;2023-04-24T07:34:42;10.40;22.00
11009;DHT22;5557;51.670;7.788;2023-04-24T07:37:09;10.50;18.40
11009;DHT22;5557;51.670;7.788;2023-04-24T07:39:37;10.80;14.90
11009;DHT22;5557;51.670;7.788;2023-04-24T07:42:04;10.80;14.50
11009;DHT22;5557;51.670;7.788;2023-04-24T07:44:31;10.80;15.20
11009;DHT22;5557;51.670;7.788;2023-04-24T07:46:58;10.70;16.20
11009;DHT22;5557;51.670;7.788;2023-04-24T07:49:25;10.40;19.70
11009;DHT22;5557;51.670;7.788;2023-04-24T07:51:52;10.20;22.50
11009;DHT22;5557;51.670;7.788;2023-04-24T07:54:19;10.10;24.70
11009;DHT22;5557;51.670;7.788;2023-04-24T07:56:46;10.10;28.30
11009;DHT22;5557;51.670;7.788;2023-04-24T07:59:13;10.10;27.40
11009;DHT22;5557;51.670;7.788;2023-04-24T08:01:40;10.00;26.90
11009;DHT22;5557;51.670;7.788;2023-04-24T08:04:07;9.90;29.00
11009;DHT22;5557;51.670;7.788;2023-04-24T08:06:34;9.80;32.30
11009;DHT22;5557;51.670;7.788;2023-04-24T08:09:01;9.80;33.90
11009;DHT22;5557;51.670;7.788;2023-04-24T08:11:29;9.80;31.20
11009;DHT22;5557;51.670;7.788;2023-04-24T08:13:56;9.80;30.10
11009;DHT22;5557;51.670;7.788;2023-04-24T08:16:23;9.70;38.40
11009;DHT22;5557;51.670;7.788;2023-04-24T08:18:51;9.70;44.10
11009;DHT22;5557;51.670;7.788;2023-04-24T08:21:18;9.70;47.80
11009;DHT22;5557;51.670;7.788;2023-04-24T08:23:46;9.70;47.40
11009;DHT22;5557;51.670;7.788;2023-04-24T08:26:13;9.60;52.60
11009;DHT22;5557;51.670;7.788;2023-04-24T08:28:40;9.50;62.30
11009;DHT22;5557;51.670;7.788;2023-04-24T08:31:07;9.50;69.70
11009;DHT22;5557;51.670;7.788;2023-04-24T08:33:35;9.40;66.30
11009;DHT22;5557;51.670;7.788;2023-04-24T08:36:05;9.40;73.60
11009;DHT22;5557;51.670;7.788;2023-04-24T08:38:33;9.40;71.80
11009;DHT22;5557;51.670;7.788;2023-04-24T08:41:01;9.40;62.40
11009;DHT22;5557;51.670;7.788;2023-04-24T08:43:28;9.50;66.40
11009;DHT22;5557;51.670;7.788;2023-04-24T08:45:56;9.80;61.70
11009;DHT22;5557;51.670;7.788;2023-04-24T08:48:24;10.00;56.10
11009;DHT22;5557;51.670;7.788;2023-04-24T08:50:58;10.10;58.50
11009;DHT22;5557;51.670;7.788;2023-04-24T08:53:26;10.10;56.10
11009;DHT22;5557;51.670;7.788;2023-04-24T08:55:55;10.10;47.60
11009;DHT22;5557;51.670;7.788;2023-04-24T08:58:25;10.00;44.30
11009;DHT22;5557;51.670;7.788;2023-04-24T09:00:56;9.90;45.80
11009;DHT22;5557;51.670;7.788;2023-04-24T09:03:24;9.80;56.30
11009;DHT22;5557;51.670;7.788;2023-04-24T09:05:52;9.60;69.80
11009;DHT22;5557;51.670;7.788;2023-04-24T09:08:24;9.40;73.80
11009;DHT22;5557;51.670;7.788;2023-04-24T09:10:52;9.20;77.80
11009;DHT22;5557;51.670;7.788;2023-04-24T09:13:22;9.30;81.90
11009;DHT22;5557;51.670;7.788;2023-04-24T09:15:49;9.30;75.80
11009;DHT22;5557;51.670;7.788;2023-04-24T09:18:17;9.50;75.00
11009;DHT22;5557;51.670;7.788;2023-04-24T09:21:06;9.60;65.20
11009;DHT22;5557;51.670;7.788;2023-04-24T09:23:33;9.60;64.10
11009;DHT22;5557;51.670;7.788;2023-04-24T09:26:02;9.60;64.40
11009;DHT22;5557;51.670;7.788;2023-04-24T09:28:34;9.60;64.60
11009;DHT22;5557;51.670;7.788;2023-04-24T09:31:13;9.60;69.40
11009;DHT22;5557;51.670;7.788;2023-04-24T09:34:00;9.50;70.20
11009;DHT22;5557;51.670;7.788;2023-04-24T09:36:37;9.30;62.30
11009;DHT22;5557;51.670;7.788;2023-04-24T09:39:06;9.10;70.20
11009;DHT22;5557;51.670;7.788;2023-04-24T09:41:50;9.00;72.10
11009;DHT22;5557;51.670;7.788;2023-04-24T09:44:22;9.00;81.50
11009;DHT22;5557;51.670;7.788;2023-04-24T09:46:57;9.00;86.40
11009;DHT22;5557;51.670;7.788;2023-04-24T09:49:33;9.00;91.70
11009;DHT22;5557;51.670;7.788;2023-04-24T09:52:11;9.00;92.70
11009;DHT22;5557;51.670;7.788;2023-04-24T09:54:39;9.00;95.90
11009;DHT22;5557;51.670;7.788;2023-04-24T09:57:09;9.10;96.40
11009;DHT22;5557;51.670;7.788;2023-04-24T09:59:42;9.00;97.80
11009;DHT22;5557;51.670;7.788;2023-04-24T10:02:20;9.10;99.90
11009;DHT22;5557;51.670;7.788;2023-04-24T10:04:55;9.00;99.90
11009;DHT22;5557;51.670;7.788;2023-04-24T10:07:26;9.00;99.90
11009;DHT22;5557;51.670;7.788;2023-04-24T10:09:53;9.00;99.90
11009;DHT22;5557;51.670;7.788;2023-04-24T10:12:21;8.90;99.90
11009;DHT22;5557;51.670;7.788;2023-04-24T10:14:49;9.00;99.90
11009;DHT22;5557;51.670;7.788;2023-04-24T10:17:17;8.90;99.90
11009;DHT22;5557;51.670;7.788;2023-04-24T10:19:45;8.90;99.90
11009;DHT22;5557;51.670;7.788;2023-04-24T10:22:14;8.90;99.90
11009;DHT22;5557;51.670;7.788;2023-04-24T10:24:44;9.10;99.90
11009;DHT22;5557;51.670;7.788;2023-04-24T10:27:13;9.10;99.90
11009;DHT22;5557;51.670;7.788;2023-04-24T10:29:43;9.10;99.90
11009;DHT22;5557;51.670;7.788;2023-04-24T10:32:11;9.20;99.90
11009;DHT22;5557;51.670;7.788;2023-04-24T10:34:40;9.30;99.90
11009;DHT22;5557;51.670;7.788;2023-04-24T10:37:07;9.30;99.90
11009;DHT22;5557;51.670;7.788;2023-04-24T10:39:35;9.40;99.90
11009;DHT22;5557;51.670;7.788;2023-04-24T10:42:16;9.50;99.90
11009;DHT22;5557;51.670;7.788;2023-04-24T10:44:47;9.60;99.90
11009;DHT22;5557;51.670;7.788;2023-04-24T10:47:15;9.60;99.90
11009;DHT22;5557;51.670;7.788;2023-04-24T10:49:42;9.50;99.90
11009;DHT22;5557;51.670;7.788;2023-04-24T10:52:10;9.40;99.90
11009;DHT22;5557;51.670;7.788;2023-04-24T10:57:28;9.30;99.90
11009;DHT22;5557;51.670;7.788;2023-04-24T11:00:16;9.20;99.90
11009;DHT22;5557;51.670;7.788;2023-04-24T11:02:46;9.10;99.90
11009;DHT22;5557;51.670;7.788;2023-04-24T11:05:21;9.00;99.90
11009;DHT22;5557;51.670;7.788;2023-04-24T11:08:13;8.90;99.90
11009;DHT22;5557;51.670;7.788;2023-04-24T11:10:54;8.80;99.90
11009;DHT22;5557;51.670;7.788;2023-04-24T11:13:22;8.80;99.90
11009;DHT22;5557;51.670;7.788;2023-04-24T11:16:15;8.70;99.90
11009;DHT22;5557;51.670;7.788;2023-04-24T11:19:09;8.70;99.90
11009;DHT22;5557;51.670;7.788;2023-04-24T11:22:14;8.60;99.90
11009;DHT22;5557;51.670;7.788;2023-04-24T11:24:50;8.60;99.90
11009;DHT22;5557;51.670;7.788;2023-04-24T11:27:21;8.60;99.90
11009;DHT22;5557;51.670;7.788;2023-04-24T11:29:59;8.60;99.90
11009;DHT22;5557;51.670;7.788;2023-04-24T11:35:21;8.60;99.90
11009;DHT22;5557;51.670;7.788;2023-04-24T11:37:53;8.50;99.90
11009;DHT22;5557;51.670;7.788;2023-04-24T11:40:23;8.50;99.90
11009;DHT22;5557;51.670;7.788;2023-04-24T11:42:53;8.40;99.90
11009;DHT22;5557;51.670;7.788;2023-04-24T11:45:29;8.40;99.90
11009;DHT22;5557;51.670;7.788;2023-04-24T11:47:57;8.60;99.90
11009;DHT22;5557;51.670;7.788;2023-04-24T11:50:26;8.60;99.90
11009;DHT22;5557;51.670;7.788;2023-04-24T11:52:54;8.60;99.90
11009;DHT22;5557;51.670;7.788;2023-04-24T11:55:26;8.70;99.90
11009;DHT22;5557;51.670;7.788;2023-04-24T11:57:57;8.70;99.90
11009;DHT22;5557;51.670;7.788;2023-04-24T12:00:27;8.70;99.90
11009;DHT22;5557;51.670;7.788;2023-04-24T12:03:07;8.70;99.90
11009;DHT22;5557;51.670;7.788;2023-04-24T12:05:36;8.70;99.90
11009;DHT22;5557;51.670;7.788;2023-04-24T12:08:03;8.70;99.90
11009;DHT22;5557;51.670;7.788;2023-04-24T12:10:32;8.80;99.90
11009;DHT22;5557;51.670;7.788;2023-04-24T12:13:00;8.80;99.90
11009;DHT22;5557;51.670;7.788;2023-04-24T12:15:27;8.90;99.90
11009;DHT22;5557;51.670;7.788;2023-04-24T12:17:56;9.00;99.90
11009;DHT22;5557;51.670;7.788;2023-04-24T12:20:31;9.10;99.90
11009;DHT22;5557;51.670;7.788;2023-04-24T12:23:00;9.20;99.90
11009;DHT22;5557;51.670;7.788;2023-04-24T12:25:29;9.20;99.90
11009;DHT22;5557;51.670;7.788;2023-04-24T12:28:23;9.20;99.90
11009;DHT22;5557;51.670;7.788;2023-04-24T12:30:50;9.30;99.90
11009;DHT22;5557;51.670;7.788;2023-04-24T12:33:19;9.40;99.90
11009;DHT22;5557;51.670;7.788;2023-04-24T12:35:48;9.50;99.90
11009;DHT22;5557;51.670;7.788;2023-04-24T12:38:16;9.50;99.90
11009;DHT22;5557;51.670;7.788;2023-04-24T12:40:44;9.50;99.90
11009;DHT22;5557;51.670;7.788;2023-04-24T12:43:18;9.50;99.90
11009;DHT22;5557;51.670;7.788;2023-04-24T12:45:48;9.50;99.90
11009;DHT22;5557;51.670;7.788;2023-04-24T12:48:16;9.40;99.90
11009;DHT22;5557;51.670;7.788;2023-04-24T12:50:43;9.40;99.90
11009;DHT22;5557;51.670;7.788;2023-04-24T12:53:13;9.30;99.90
11009;DHT22;5557;51.670;7.788;2023-04-24T12:55:41;9.30;99.90
11009;DHT22;5557;51.670;7.788;2023-04-24T12:58:08;9.30;99.90
11009;DHT22;5557;51.670;7.788;2023-04-24T13:00:35;9.30;99.90
11009;DHT22;5557;51.670;7.788;2023-04-24T13:03:03;9.40;99.90
11009;DHT22;5557;51.670;7.788;2023-04-24T13:05:30;9.50;99.90
11009;DHT22;5557;51.670;7.788;2023-04-24T13:07:57;9.80;99.90
11009;DHT22;5557;51.670;7.788;2023-04-24T13:10:25;9.90;99.90
11009;DHT22;5557;51.670;7.788;2023-04-24T13:12:52;10.00;97.20
11009;DHT22;5557;51.670;7.788;2023-04-24T13:15:19;9.90;93.50
11009;DHT22;5557;51.670;7.788;2023-04-24T13:17:46;9.70;83.60
11009;DHT22;5557;51.670;7.788;2023-04-24T13:20:12;9.60;83.40
11009;DHT22;5557;51.670;7.788;2023-04-24T13:22:40;9.50;71.90
11009;DHT22;5557;51.670;7.788;2023-04-24T13:25:07;9.40;75.90
11009;DHT22;5557;51.670;7.788;2023-04-24T13:27:35;9.40;70.40
11009;DHT22;5557;51.670;7.788;2023-04-24T13:30:02;9.40;68.00
11009;DHT22;5557;51.670;7.788;2023-04-24T13:32:30;9.30;69.00
11009;DHT22;5557;51.670;7.788;2023-04-24T13:34:57;9.30;69.90
11009;DHT22;5557;51.670;7.788;2023-04-24T13:37:25;9.30;72.80
11009;DHT22;5557;51.670;7.788;2023-04-24T13:39:52;9.30;72.50
11009;DHT22;5557;51.670;7.788;2023-04-24T13:42:20;9.40;69.60
11009;DHT22;5557;51.670;7.788;2023-04-24T13:44:47;9.50;70.10
11009;DHT22;5557;51.670;7.788;2023-04-24T13:47:14;9.70;66.60
11009;DHT22;5557;51.670;7.788;2023-04-24T13:49:41;9.80;56.90
11009;DHT22;5557;51.670;7.788;2023-04-24T13:52:08;10.00;51.60
11009;DHT22;5557;51.670;7.788;2023-04-24T13:54:37;10.10;41.30
11009;DHT22;5557;51.670;7.788;2023-04-24T13:57:04;10.10;39.90
11009;DHT22;5557;51.670;7.788;2023-04-24T13:59:31;10.30;35.40
11009;DHT22;5557;51.670;7.788;2023-04-24T14:01:58;10.40;25.60
11009;DHT22;5557;51.670;7.788;2023-04-24T14:04:25;10.40;24.70
11009;DHT22;5557;51.670;7.788;2023-04-24T14:06:53;10.40;21.90
11009;DHT22;5557;51.670;7.788;2023-04-24T14:09:20;10.30;22.00
11009;DHT22;5557;51.670;7.788;2023-04-24T14:11:47;10.20;22.20
11009;DHT22;5557;51.670;7.788;2023-04-24T14:14:14;10.20;26.10
11009;DHT22;5557;51.670;7.788;2023-04-24T14:16:42;10.10;25.00
11009;DHT22;5557;51.670;7.788;2023-04-24T14:19:09;10.10;26.40
11009;DHT22;5557;51.670;7.788;2023-04-24T14:21:36;10.00;21.80
11009;DHT22;5557;51.670;7.788;2023-04-24T14:24:04;9.90;27.90
11009;DHT22;5557;51.670;7.788;2023-04-24T14:26:31;10.00;25.00
11009;DHT22;5557;51.670;7.788;2023-04-24T14:28:58;10.10;22.20
11009;DHT22;5557;51.670;7.788;2023-04-24T14:31:41;10.30;19.80
11009;DHT22;5557;51.670;7.788;2023-04-24T14:34:08;10.40;17.40
11009;DHT22;5557;51.670;7.788;2023-04-24T14:36:36;10.50;18.00
11009;DHT22;5557;51.670;7.788;2023-04-24T14:39:03;10.70;15.10
11009;DHT22;5557;51.670;7.788;2023-04-24T14:41:33;10.80;13.10
11009;DHT22;5557;51.670;7.788;2023-04-24T14:44:04;10.80;10.40
11009;DHT22;5557;51.670;7.788;2023-04-24T14:46:31;10.80;7.10
11009;DHT22;5557;51.670;7.788;2023-04-24T14:48:58;10.80;8.60
11009;DHT22;5557;51.670;7.788;2023-04-24T14:51:25;10.70;8.70
11009;DHT22;5557;51.670;7.788;2023-04-24T14:53:53;10.60;9.90
11009;DHT22;5557;51.670;7.788;2023-04-24T14:56:20;10.50;10.70
11009;DHT22;5557;51.670;7.788;2023-04-24T14:58:47;10.40;12.30
11009;DHT22;5557;51.670;7.788;2023-04-24T15:01:14;10.30;13.80
11009;DHT22;5557;51.670;7.788;2023-04-24T15:03:43;10.30;16.60
11009;DHT22;5557;51.670;7.788;2023-04-24T15:06:11;10.30;16.10
11009;DHT22;5557;51.670;7.788;2023-04-24T15:08:38;10.30;14.10
11009;DHT22;5557;51.670;7.788;2023-04-24T15:11:06;10.40;11.70
11009;DHT22;5557;51.670;7.788;2023-04-24T15:13:34;10.60;11.30
11009;DHT22;5557;51.670;7.788;2023-04-24T15:16:01;10.60;9.20
11009;DHT22;5557;51.670;7.788;2023-04-24T15:18:28;10.60;15.50
11009;DHT22;5557;51.670;7.788;2023-04-24T15:20:56;10.40;16.10
11009;DHT22;5557;51.670;7.788;2023-04-24T15:23:23;10.20;17.60
11009;DHT22;5557;51.670;7.788;2023-04-24T15:25:50;10.00;14.90
11009;DHT22;5557;51.670;7.788;2023-04-24T15:28:17;9.90;19.00
11009;DHT22;5557;51.670;7.788;2023-04-24T15:30:44;9.80;16.40
11009;DHT22;5557;51.670;7.788;2023-04-24T15:33:11;9.90;16.20
11009;DHT22;5557;51.670;7.788;2023-04-24T15:35:39;10.00;15.50
11009;DHT22;5557;51.670;7.788;2023-04-24T15:38:07;10.00;16.70
11009;DHT22;5557;51.670;7.788;2023-04-24T15:40:34;10.10;18.00
11009;DHT22;5557;51.670;7.788;2023-04-24T15:43:03;10.10;17.20
11009;DHT22;5557;51.670;7.788;2023-04-24T15:45:32;10.20;21.00
11009;DHT22;5557;51.670;7.788;2023-04-24T15:47:59;10.20;20.10
11009;DHT22;5557;51.670;7.788;2023-04-24T15:50:27;10.30;21.30
11009;DHT22;5557;51.670;7.788;2023-04-24T15:52:54;10.40;19.20
11009;DHT22;5557;51.670;7.788;2023-04-24T15:55:22;10.40;18.80
11009;DHT22;5557;51.670;7.788;2023-04-24T15:57:49;10.40;20.00
11009;DHT22;5557;51.670;7.788;2023-04-24T16:00:16;10.40;18.10
11009;DHT22;5557;51.670;7.788;2023-04-24T16:02:44;10.30;20.60
11009;DHT22;5557;51.670;7.788;2023-04-24T16:05:11;10.40;22.40
11009;DHT22;5557;51.670;7.788;2023-04-24T16:07:38;10.30;22.30
11009;DHT22;5557;51.670;7.788;2023-04-24T16:10:06;10.20;22.00
11009;DHT22;5557;51.670;7.788;2023-04-24T16:12:33;10.20;25.50